SBCG/CGR METAR and TAF weather

Enter ICAO airport designator
Station Type Date Time Source
SBCG METAR 2019/07/20 05:00 UTC NOAA

SBCG 200500Z 09008KT CAVOK 21/15 Q1018


Station Type Date Time Source
SBCG Decoded METAR 2019/07/20 05:00 UTC NOAA

Campo Grande Aeroporto , Brazil (SBCG) 20-28S 054-40W 567M
Jul 20, 2019 - 01:00 AM EDT / 2019.07.20 0500 UTC
Wind: from the E (090 degrees) at 9 MPH (8 KT):0
Visibility: greater than 7 mile(s):0
Temperature: 69 F (21 C)
Dew Point: 59 F (15 C)
Relative Humidity: 68%
Pressure (altimeter): 30.06 in. Hg (1018 hPa)
ob: SBCG 200500Z 09008KT CAVOK 21/15 Q1018
cycle: 5

Station Type Date Time Source
SBCG TAF 2019/07/20 06:59 UTC NOAA

TAF SBCG 200300Z 2006/2106 13008KT CAVOK TN18/2009Z TX30/2018Z PROB40 2008/2011 2000 BR NSC
BECMG 2012/2014 06009KT
RMK PER

Example: see airport list